West Bend, WI

11:54 PM CST on February 24, 2018 (GMT -0600)
Town Hall | | Change Station
Active Advisory: Wind Advisory

Elev 945 ft 43.46 °N, 88.21 °W | Updated 33 seconds ago

Rain
Rain
35.9 °F
Feels Like 27 °F
N
13.0
Wind Variable Wind from SE

Today
High -- | Low -- °F
--% Chance of Precip.
Yesterday
High -- | Low -- °F
Precip. -- in
Pressure 29.42 in
Visibility 2.5 miles
Clouds Overcast 300 ft
Windchill 27 °F
Dew Point 35 °F
Humidity 98%
Rainfall 0.17 in
Snow Depth Not available.
6:37 AM 5:35 PM
Waxing Gibbous, 71% visible
METAR KETB 250535Z AUTO 14013G16KT 2 1/2SM RA OVC003 02/02 A2942 RMK AO2 P0002
Pressure 29.42 in
Visibility 2.5 miles
Clouds Overcast 300 ft
Windchill 27 °F
Dew Point 35 °F
Humidity 98%
Rainfall 0.17 in
Snow Depth Not available.
6:37 AM 5:35 PM
Waxing Gibbous, 71% visible
METAR KETB 250535Z AUTO 14013G16KT 2 1/2SM RA OVC003 02/02 A2942 RMK AO2 P0002

Get Your Daily Forecast Email!

Thanks for signing up!

Be on the lookout for a verification email in your inbox.

You'll start receiving severe weather alerts in your inbox..

×

10-Day Weather Forecast

Almanac

Astronomy

Feb. 24, 2018 Rise Set
Actual Time
Civil Twilight
Nautical Twilight
Astronomical Twilight
Moon
Length of Visible Light
Length of Day
Tomorrow will be .
, % of the Moon is Illuminated

Today's Extremes

State Highs State Lows

Community

WunderPhotos

Category 6

Welcome to Category 6. This is the collective home for Weather Underground's featured writeups by Dr. Jeff Masters (right), Bob Henson (left), Chris Burt, and other regular contributors.

Nearby

Air Quality

  Air Quality AQ Index Pollutant
Not available.

Snow Depth

Station Depth Elevation

Earthquake Activity

City Distance Mag. Time & Date
Minimum magnitude displayed is 2.5.

Coastal Water Temperatures

Place Temperature

Stations

Nearby Weather Stations

Station Location Temp. Windchill Dew Point Humidity Wind Precip. Elev Updated Type
                   

Watches & Warnings

Wind Advisory
Issued: 8:49 PM CST Feb. 24, 2018 – National Weather Service

... Wind Advisory remains in effect from 3 am to 3 PM CST Sunday...

A Wind Advisory remains in effect from 3 am to 3 PM CST Sunday.

* Winds... westerly winds associated with a cold front will
develop early Sunday morning. Expect 20 to 30 mph winds with
gusts as high as 45 mph through early afternoon.

* Impacts... loose items such as garbage cans can blow around in
these gusty winds. Be sure to secure your belongings. Driving
may become difficult on north to south oriented roads.

Precautionary/preparedness actions...

A Wind Advisory means that winds of 35 mph are expected. Winds
this strong can make driving difficult... especially for high
profile and lightweight vehicles. Use extra caution.